createdAt,value
2017-09-15T00:01:51.592Z,100300.09
2017-09-15T00:04:20.227Z,100297.73
2017-09-15T00:06:49.799Z,100303.50
2017-09-15T00:09:18.172Z,100315.08
2017-09-15T00:11:47.564Z,100314.36
2017-09-15T00:14:17.378Z,100330.46
2017-09-15T00:16:47.503Z,100337.30
2017-09-15T00:19:16.931Z,100334.38
2017-09-15T00:21:45.354Z,100342.98
2017-09-15T00:24:13.741Z,100344.83
2017-09-15T00:26:43.161Z,100345.30
2017-09-15T00:29:11.555Z,100350.61
2017-09-15T00:31:39.919Z,100351.78
2017-09-15T00:34:08.627Z,100358.60
2017-09-15T00:36:37.015Z,100358.14
2017-09-15T00:39:06.030Z,100363.86
2017-09-15T00:41:36.861Z,100364.59
2017-09-15T00:44:05.238Z,100376.36
2017-09-15T00:46:33.611Z,100374.62
2017-09-15T00:49:03.154Z,100379.74
2017-09-15T00:51:31.534Z,100387.38
2017-09-15T00:54:00.641Z,100394.02
2017-09-15T00:56:30.243Z,100396.22
2017-09-15T00:58:59.406Z,100396.84
2017-09-15T01:01:27.785Z,100403.20
2017-09-15T01:03:57.726Z,100399.27
2017-09-15T01:06:28.751Z,100404.41
2017-09-15T01:08:57.130Z,100406.95
2017-09-15T01:11:27.336Z,100412.12
2017-09-15T01:13:55.715Z,100413.09
2017-09-15T01:16:24.304Z,100413.87
2017-09-15T01:18:53.144Z,100419.36
2017-09-15T01:21:23.064Z,100423.09
2017-09-15T01:23:51.768Z,100415.78
2017-09-15T01:26:20.651Z,100426.14
2017-09-15T01:28:50.502Z,100425.69
2017-09-15T01:31:18.870Z,100430.50
2017-09-15T01:33:48.464Z,100440.22
2017-09-15T01:36:17.452Z,100447.56
2017-09-15T01:38:46.259Z,100450.48
2017-09-15T01:41:15.672Z,100450.35
2017-09-15T01:43:44.021Z,100457.61
2017-09-15T01:46:12.377Z,100453.37
2017-09-15T01:48:41.936Z,100463.22
2017-09-15T01:51:10.284Z,100467.57
2017-09-15T01:53:38.637Z,100466.53
2017-09-15T01:56:08.196Z,100471.95
2017-09-15T01:58:36.583Z,100470.13
2017-09-15T02:01:05.204Z,100488.23
2017-09-15T02:03:35.834Z,100491.67
2017-09-15T02:06:04.970Z,100493.88
2017-09-15T02:08:33.314Z,100499.34
2017-09-15T02:11:02.943Z,100498.83
2017-09-15T02:13:32.178Z,100497.42
2017-09-15T02:16:00.517Z,100498.75
2017-09-15T02:18:29.139Z,100507.09
2017-09-15T02:20:57.506Z,100516.50
2017-09-15T02:23:25.857Z,100512.82
2017-09-15T02:25:54.482Z,100516.75
2017-09-15T02:28:23.885Z,100520.02
2017-09-15T02:30:52.917Z,100522.30
2017-09-15T02:33:22.626Z,100528.20
2017-09-15T02:35:51.891Z,100526.57
2017-09-15T02:38:20.279Z,100527.46
2017-09-15T02:40:49.721Z,100537.19
2017-09-15T02:43:22.864Z,100540.04
2017-09-15T02:45:51.504Z,100545.76
2017-09-15T02:48:22.206Z,100550.64
2017-09-15T02:50:50.554Z,100551.33
2017-09-15T02:53:20.381Z,100559.97
2017-09-15T02:55:48.768Z,100562.23
2017-09-15T02:58:17.147Z,100563.96
2017-09-15T03:00:45.865Z,100573.44
2017-09-15T03:03:14.986Z,100568.84
2017-09-15T03:05:44.082Z,100575.13
2017-09-15T03:08:12.834Z,100569.64
2017-09-15T03:10:41.204Z,100573.39
2017-09-15T03:13:09.616Z,100578.22
2017-09-15T03:15:39.137Z,100589.80
2017-09-15T03:18:07.682Z,100587.84
2017-09-15T03:20:36.037Z,100588.36
2017-09-15T03:23:05.748Z,100592.34
2017-09-15T03:25:34.089Z,100589.15
2017-09-15T03:28:02.538Z,100587.56
2017-09-15T03:30:31.386Z,100585.67
2017-09-15T03:32:59.752Z,100593.84
2017-09-15T03:35:28.114Z,100590.05
2017-09-15T03:37:56.992Z,100589.80
2017-09-15T03:40:25.344Z,100589.20
2017-09-15T03:42:54.705Z,100601.52
2017-09-15T03:45:23.370Z,100602.59
2017-09-15T03:47:52.378Z,100606.08
2017-09-15T03:50:20.733Z,100607.47
2017-09-15T03:52:49.752Z,100611.05
2017-09-15T03:55:18.133Z,100615.60
2017-09-15T03:57:46.477Z,100615.78
2017-09-15T04:00:15.170Z,100608.71
2017-09-15T04:02:43.542Z,100615.67
2017-09-15T04:05:12.675Z,100613.11
2017-09-15T04:07:41.381Z,100615.44
2017-09-15T04:10:09.720Z,100617.55
2017-09-15T04:12:38.086Z,100608.66
2017-09-15T04:15:07.519Z,100617.77
2017-09-15T04:17:35.907Z,100618.01
2017-09-15T04:20:04.847Z,100624.25
2017-09-15T04:22:34.425Z,100622.73
2017-09-15T04:25:02.786Z,100624.59
2017-09-15T04:27:31.165Z,100633.11
2017-09-15T04:30:01.019Z,100634.48
2017-09-15T04:32:29.394Z,100633.72
2017-09-15T04:34:58.534Z,100635.98
2017-09-15T04:37:27.337Z,100644.48
2017-09-15T04:39:55.693Z,100647.95
2017-09-15T04:42:25.407Z,100638.52
2017-09-15T04:44:54.464Z,100638.16
2017-09-15T04:47:23.457Z,100647.64
2017-09-15T04:49:53.173Z,100652.30
2017-09-15T04:52:22.586Z,100644.81
2017-09-15T04:54:51.153Z,100648.98
2017-09-15T04:57:22.832Z,100649.39
2017-09-15T04:59:51.899Z,100654.55
2017-09-15T05:02:21.498Z,100659.00
2017-09-15T05:04:50.674Z,100666.28
2017-09-15T05:07:19.759Z,100666.25
2017-09-15T05:09:48.183Z,100663.50
2017-09-15T05:12:17.178Z,100666.16
2017-09-15T05:14:46.682Z,100670.08
2017-09-15T05:17:15.063Z,100665.31
2017-09-15T05:19:44.978Z,100670.69
2017-09-15T05:22:13.688Z,100674.02
2017-09-15T05:24:42.139Z,100664.86
2017-09-15T05:27:10.500Z,100676.30
2017-09-15T05:29:40.289Z,100672.14
2017-09-15T05:32:08.671Z,100680.65
2017-09-15T05:34:37.807Z,100668.95
2017-09-15T05:37:07.518Z,100677.84
2017-09-15T05:39:35.914Z,100667.48
2017-09-15T05:42:04.483Z,100673.28
2017-09-15T05:44:33.121Z,100667.71
2017-09-15T05:47:02.393Z,100672.61
2017-09-15T05:49:30.744Z,100672.05
2017-09-15T05:51:59.840Z,100675.80
2017-09-15T05:54:28.215Z,100689.81
2017-09-15T05:56:57.959Z,100694.00
2017-09-15T05:59:26.725Z,100699.48
2017-09-15T06:01:55.095Z,100696.36
2017-09-15T06:04:23.469Z,100696.25
2017-09-15T06:06:52.103Z,100707.68
2017-09-15T06:09:20.610Z,100703.02
2017-09-15T06:11:51.065Z,100705.06
2017-09-15T06:14:20.793Z,100705.45
2017-09-15T06:16:49.434Z,100711.14
2017-09-15T06:19:17.821Z,100710.17
2017-09-15T06:21:46.780Z,100716.34
2017-09-15T06:24:16.821Z,100722.98
2017-09-15T06:26:45.298Z,100714.19
2017-09-15T06:29:14.204Z,100720.45
2017-09-15T06:31:42.669Z,100731.11
2017-09-15T06:34:11.813Z,100723.44
2017-09-15T06:36:41.232Z,100723.50
2017-09-15T06:39:09.594Z,100723.64
2017-09-15T06:41:38.513Z,100731.20
2017-09-15T06:44:08.017Z,100723.20
2017-09-15T06:46:36.391Z,100729.98
2017-09-15T06:49:05.531Z,100724.48
2017-09-15T06:51:35.881Z,100727.88
2017-09-15T06:54:04.880Z,100724.34
2017-09-15T06:56:33.280Z,100725.20
2017-09-15T06:59:02.349Z,100731.12
2017-09-15T07:01:32.129Z,100728.65
2017-09-15T07:04:01.508Z,100725.66
2017-09-15T07:06:31.158Z,100735.22
2017-09-15T07:09:00.225Z,100730.61
2017-09-15T07:11:29.383Z,100737.46
2017-09-15T07:13:58.660Z,100748.47
2017-09-15T07:16:27.723Z,100744.39
2017-09-15T07:18:56.104Z,100750.25
2017-09-15T07:21:26.351Z,100748.84
2017-09-15T07:23:54.710Z,100748.01
2017-09-15T07:26:23.063Z,100748.69
2017-09-15T07:28:52.518Z,100748.84
2017-09-15T07:31:21.578Z,100752.30
2017-09-15T07:33:50.947Z,100756.56
2017-09-15T07:36:19.665Z,100757.88
2017-09-15T07:38:48.866Z,100756.58
2017-09-15T07:41:19.463Z,100754.72
2017-09-15T07:43:49.824Z,100767.06
2017-09-15T07:46:18.961Z,100764.45
2017-09-15T07:48:47.335Z,100760.80
2017-09-15T07:51:17.055Z,100759.19
2017-09-15T07:53:46.785Z,100760.08
2017-09-15T07:56:15.137Z,100776.98
2017-09-15T07:58:44.989Z,100773.48
2017-09-15T08:01:13.382Z,100770.52
2017-09-15T08:03:41.796Z,100770.22
2017-09-15T08:06:11.371Z,100778.48
2017-09-15T08:08:39.741Z,100781.77
2017-09-15T08:11:09.065Z,100784.09
2017-09-15T08:13:38.526Z,100773.33
2017-09-15T08:16:08.586Z,100775.14
2017-09-15T08:18:38.561Z,100769.86
2017-09-15T08:21:07.450Z,100772.66
2017-09-15T08:23:37.641Z,100786.57
2017-09-15T08:26:06.084Z,100782.61
2017-09-15T08:28:35.855Z,100778.22
2017-09-15T08:31:04.701Z,100780.63
2017-09-15T08:33:33.199Z,100794.06
2017-09-15T08:36:03.046Z,100794.76
2017-09-15T08:38:31.466Z,100792.60
2017-09-15T08:41:01.163Z,100789.77
2017-09-15T08:43:30.546Z,100797.83
2017-09-15T08:45:58.924Z,100797.23
2017-09-15T08:48:27.717Z,100791.75
2017-09-15T08:50:57.140Z,100794.09
2017-09-15T08:53:25.506Z,100798.75
2017-09-15T08:55:53.890Z,100789.21
2017-09-15T08:58:22.610Z,100789.09
2017-09-15T09:00:51.043Z,100784.38
2017-09-15T09:03:20.248Z,100780.25
2017-09-15T09:05:49.102Z,100775.59
2017-09-15T09:08:19.161Z,100783.47
2017-09-15T09:10:47.518Z,100777.98
2017-09-15T09:13:16.928Z,100778.91
2017-09-15T09:15:45.365Z,100786.19
2017-09-15T09:18:13.754Z,100793.37
2017-09-15T09:20:42.491Z,100789.73
2017-09-15T09:23:10.928Z,100794.75
2017-09-15T09:25:39.374Z,100789.02
2017-09-15T09:28:08.318Z,100801.16
2017-09-15T09:30:36.746Z,100795.23
2017-09-15T09:33:06.011Z,100800.48
2017-09-15T09:35:34.872Z,100793.64
2017-09-15T09:38:05.314Z,100792.35
2017-09-15T09:40:33.681Z,100798.98
2017-09-15T09:43:02.704Z,100799.77
2017-09-15T09:45:32.142Z,100810.78
2017-09-15T09:48:00.867Z,100807.61
2017-09-15T09:50:29.792Z,100806.56
2017-09-15T09:52:59.581Z,100811.48
2017-09-15T09:55:27.981Z,100802.44
2017-09-15T09:57:56.797Z,100799.66
2017-09-15T10:00:27.967Z,100796.17
2017-09-15T10:02:56.376Z,100797.95
2017-09-15T10:05:25.084Z,100796.16
2017-09-15T10:07:53.522Z,100786.96
2017-09-15T10:10:22.836Z,100814.38
2017-09-15T10:12:51.689Z,100791.56
2017-09-15T10:15:20.107Z,100795.94
2017-09-15T10:17:49.693Z,100791.56
2017-09-15T10:20:19.187Z,100784.93
2017-09-15T10:22:48.361Z,100791.29
2017-09-15T10:25:16.958Z,100789.85
2017-09-15T10:27:45.793Z,100793.16
2017-09-15T10:30:14.324Z,100786.75
2017-09-15T10:32:42.946Z,100781.34
2017-09-15T10:35:12.472Z,100780.42
2017-09-15T10:37:40.865Z,100785.80
2017-09-15T10:40:10.004Z,100779.19
2017-09-15T10:42:39.331Z,100773.72
2017-09-15T10:45:07.690Z,100781.14
2017-09-15T10:47:36.112Z,100777.50
2017-09-15T10:50:05.859Z,100781.22
2017-09-15T10:52:34.261Z,100766.29
2017-09-15T10:55:02.618Z,100767.91
2017-09-15T10:57:36.776Z,100775.98
2017-09-15T11:00:12.300Z,100771.95
2017-09-15T11:02:40.988Z,100771.52
2017-09-15T11:05:09.388Z,100769.77
2017-09-15T11:07:37.774Z,100764.23
2017-09-15T11:10:07.971Z,100769.30
2017-09-15T11:12:37.142Z,100764.27
2017-09-15T11:15:06.031Z,100758.08
2017-09-15T11:17:35.015Z,100763.20
2017-09-15T11:20:04.047Z,100753.27
2017-09-15T11:22:33.889Z,100752.23
2017-09-15T11:25:02.849Z,100755.61
2017-09-15T11:27:31.982Z,100746.92
2017-09-15T11:30:01.099Z,100741.90
2017-09-15T11:32:29.728Z,100739.55
2017-09-15T11:34:58.812Z,100743.48
2017-09-15T11:37:27.846Z,100746.53
2017-09-15T11:39:58.111Z,100748.55
2017-09-15T11:42:26.486Z,100742.29
2017-09-15T11:44:54.852Z,100753.91
2017-09-15T11:47:23.673Z,100754.98
2017-09-15T11:49:52.017Z,100753.99
2017-09-15T11:52:20.670Z,100753.66
2017-09-15T11:54:50.124Z,100760.97
2017-09-15T11:57:18.485Z,100758.61
2017-09-15T11:59:47.550Z,100759.45
2017-09-15T12:02:16.995Z,100759.11
2017-09-15T12:04:45.360Z,100748.14
2017-09-15T12:07:13.743Z,100753.00
2017-09-15T12:09:43.296Z,100753.30
2017-09-15T12:12:11.654Z,100755.69
2017-09-15T12:14:40.028Z,100751.84
2017-09-15T12:17:08.666Z,100753.77
2017-09-15T12:19:37.690Z,100749.16
2017-09-15T12:22:06.069Z,100749.94
2017-09-15T12:24:34.717Z,100752.02
2017-09-15T12:27:03.073Z,100750.05
2017-09-15T12:29:31.427Z,100743.92
2017-09-15T12:32:02.516Z,100742.77
2017-09-15T12:34:30.920Z,100743.41
2017-09-15T12:36:59.307Z,100747.61
2017-09-15T12:39:28.179Z,100744.39
2017-09-15T12:41:58.113Z,100733.29
2017-09-15T12:44:28.063Z,100737.42
2017-09-15T12:46:56.722Z,100736.03
2017-09-15T12:49:25.099Z,100730.88
2017-09-15T12:51:53.467Z,100735.76
2017-09-15T12:54:23.572Z,100733.31
2017-09-15T12:56:52.696Z,100720.55
2017-09-15T12:59:21.843Z,100734.66
2017-09-15T13:01:50.610Z,100719.34
2017-09-15T13:04:19.351Z,100716.16
2017-09-15T13:06:48.493Z,100715.44
2017-09-15T13:09:17.153Z,100701.72
2017-09-15T13:11:46.434Z,100715.19
2017-09-15T13:14:16.575Z,100717.20
2017-09-15T13:16:45.516Z,100718.32
2017-09-15T13:19:14.514Z,100716.62
2017-09-15T13:21:43.157Z,100722.00
2017-09-15T13:24:11.797Z,100726.85
2017-09-15T13:26:40.141Z,100727.23
2017-09-15T13:29:08.519Z,100727.19
2017-09-15T13:31:37.381Z,100717.27
2017-09-15T13:34:05.844Z,100726.06
2017-09-15T13:36:34.818Z,100735.22
2017-09-15T13:39:03.588Z,100734.98
2017-09-15T13:41:32.013Z,100727.81
2017-09-15T13:44:00.373Z,100716.76
2017-09-15T13:46:30.635Z,100712.89
2017-09-15T13:48:58.974Z,100715.18
2017-09-15T13:51:28.086Z,100717.25
2017-09-15T13:53:57.527Z,100713.62
2017-09-15T13:56:26.192Z,100713.59
2017-09-15T13:58:54.594Z,100704.33
2017-09-15T14:01:23.398Z,100705.95
2017-09-15T14:03:54.381Z,100702.25
2017-09-15T14:06:23.945Z,100701.45
2017-09-15T14:08:52.312Z,100692.60
2017-09-15T14:11:21.231Z,100690.01
2017-09-15T14:13:50.967Z,100682.30
2017-09-15T14:16:21.039Z,100681.53
2017-09-15T14:18:49.388Z,100675.16
2017-09-15T14:21:19.226Z,100667.22
2017-09-15T14:23:47.617Z,100674.25
2017-09-15T14:26:17.096Z,100672.58
2017-09-15T14:28:46.114Z,100673.76
2017-09-15T14:31:15.886Z,100666.20
2017-09-15T14:33:45.783Z,100666.20
2017-09-15T14:36:15.632Z,100666.09
2017-09-15T14:38:44.252Z,100662.97
2017-09-15T14:41:12.616Z,100662.88
2017-09-15T14:43:42.123Z,100663.30
2017-09-15T14:46:11.415Z,100660.69
2017-09-15T14:48:40.328Z,100656.02
2017-09-15T14:51:09.138Z,100660.01
2017-09-15T14:53:37.612Z,100656.78
2017-09-15T14:56:05.980Z,100663.09
2017-09-15T14:58:34.700Z,100653.97
2017-09-15T15:01:03.369Z,100652.41
2017-09-15T15:03:33.345Z,100650.55
2017-09-15T15:06:03.369Z,100655.95
2017-09-15T15:08:31.893Z,100650.63
2017-09-15T15:11:01.048Z,100653.00
2017-09-15T15:13:30.471Z,100645.80
2017-09-15T15:15:58.839Z,100648.00
2017-09-15T15:18:27.177Z,100656.92
2017-09-15T15:20:55.872Z,100650.41
2017-09-15T15:23:24.197Z,100668.88
2017-09-15T15:25:53.427Z,100678.38
2017-09-15T15:28:23.813Z,100679.53
2017-09-15T15:30:52.283Z,100682.99
2017-09-15T15:33:20.674Z,100695.55
2017-09-15T15:35:50.235Z,100678.73
2017-09-15T15:38:18.582Z,100689.73
2017-09-15T15:40:48.168Z,100691.11
2017-09-15T15:43:18.525Z,100690.53
2017-09-15T15:45:46.867Z,100690.57
2017-09-15T15:48:15.207Z,100690.64
2017-09-15T15:50:45.152Z,100687.09
2017-09-15T15:53:14.355Z,100686.05
2017-09-15T15:55:42.714Z,100681.36
2017-09-15T15:58:11.258Z,100679.89
2017-09-15T16:00:39.622Z,100678.88
2017-09-15T16:03:07.987Z,100675.40
2017-09-15T16:05:37.310Z,100674.75
2017-09-15T16:08:05.688Z,100676.87
2017-09-15T16:10:34.374Z,100668.20
2017-09-15T16:13:03.332Z,100669.39
2017-09-15T16:15:31.665Z,100662.56
2017-09-15T16:18:00.038Z,100671.94
2017-09-15T16:20:29.472Z,100674.73
2017-09-15T16:22:58.190Z,100668.67
2017-09-15T16:25:26.564Z,100672.17
2017-09-15T16:27:55.190Z,100670.50
2017-09-15T16:30:24.750Z,100672.60
2017-09-15T16:32:53.100Z,100679.66
2017-09-15T16:35:21.845Z,100673.41
2017-09-15T16:37:50.354Z,100680.88
2017-09-15T16:40:25.266Z,100687.83
2017-09-15T16:42:59.878Z,100683.36
2017-09-15T16:45:33.908Z,100683.56
2017-09-15T16:48:10.063Z,100679.45
2017-09-15T16:50:39.121Z,100685.09
2017-09-15T16:53:07.497Z,100678.55
2017-09-15T16:55:35.874Z,100685.22
2017-09-15T16:58:04.526Z,100683.42
2017-09-15T17:00:33.237Z,100677.97
2017-09-15T17:03:03.141Z,100676.41
2017-09-15T17:05:31.752Z,100671.97
2017-09-15T17:08:00.125Z,100676.16
2017-09-15T17:10:28.497Z,100676.13
2017-09-15T17:12:57.692Z,100669.52
2017-09-15T17:15:26.610Z,100671.75
2017-09-15T17:17:55.198Z,100677.59
2017-09-15T17:20:23.953Z,100683.50
2017-09-15T17:22:53.522Z,100686.09
2017-09-15T17:25:21.894Z,100689.63
2017-09-15T17:27:51.474Z,100689.22
2017-09-15T17:30:19.833Z,100691.70
2017-09-15T17:32:49.199Z,100695.78
2017-09-15T17:35:18.245Z,100693.79
2017-09-15T17:37:46.638Z,100700.84
2017-09-15T17:40:14.996Z,100694.27
2017-09-15T17:42:43.892Z,100692.91
2017-09-15T17:45:13.810Z,100693.44
2017-09-15T17:47:42.817Z,100697.03
2017-09-15T17:50:12.268Z,100699.04
2017-09-15T17:52:42.314Z,100711.22
2017-09-15T17:55:10.707Z,100713.53
2017-09-15T17:57:39.820Z,100709.06
2017-09-15T18:00:09.087Z,100714.92
2017-09-15T18:02:37.775Z,100711.46
2017-09-15T18:05:06.994Z,100714.13
2017-09-15T18:07:36.317Z,100720.23
2017-09-15T18:10:05.468Z,100721.12
2017-09-15T18:12:34.910Z,100724.09
2017-09-15T18:15:03.291Z,100727.70
2017-09-15T18:17:31.655Z,100733.61
2017-09-15T18:20:01.278Z,100729.41
2017-09-15T18:22:29.659Z,100736.88
2017-09-15T18:24:58.087Z,100739.18
2017-09-15T18:27:27.503Z,100740.45
2017-09-15T18:29:55.870Z,100739.13
2017-09-15T18:32:24.986Z,100741.75
2017-09-15T18:34:54.466Z,100737.62
2017-09-15T18:37:23.691Z,100737.41
2017-09-15T18:39:52.083Z,100732.78
2017-09-15T18:42:21.113Z,100732.25
2017-09-15T18:44:49.469Z,100732.96
2017-09-15T18:47:17.811Z,100732.09
2017-09-15T18:49:46.454Z,100738.63
2017-09-15T18:52:14.874Z,100735.15
2017-09-15T18:54:43.326Z,100732.52
2017-09-15T18:57:11.942Z,100726.19
2017-09-15T18:59:40.346Z,100728.94
2017-09-15T19:02:10.017Z,100730.53
2017-09-15T19:04:39.759Z,100736.38
2017-09-15T19:07:08.112Z,100737.16
2017-09-15T19:09:36.484Z,100741.77
2017-09-15T19:12:06.142Z,100734.11
2017-09-15T19:14:34.509Z,100741.98
2017-09-15T19:17:02.899Z,100735.05
2017-09-15T19:19:34.438Z,100737.09
2017-09-15T19:22:03.502Z,100732.41
2017-09-15T19:24:34.348Z,100734.19
2017-09-15T19:27:03.999Z,100735.25
2017-09-15T19:29:32.381Z,100742.48
2017-09-15T19:32:00.775Z,100735.38
2017-09-15T19:34:29.484Z,100740.12
2017-09-15T19:36:58.762Z,100747.49
2017-09-15T19:39:27.450Z,100745.94
2017-09-15T19:41:56.137Z,100740.84
2017-09-15T19:44:25.486Z,100738.34
2017-09-15T19:46:53.894Z,100739.28
2017-09-15T19:49:22.709Z,100734.32
2017-09-15T19:51:51.099Z,100733.33
2017-09-15T19:56:53.035Z,100739.20
2017-09-15T19:59:21.438Z,100736.77
2017-09-15T20:01:50.621Z,100735.69
2017-09-15T20:04:19.544Z,100745.82
2017-09-15T20:06:48.890Z,100745.45
2017-09-15T20:09:17.280Z,100732.77
2017-09-15T20:11:46.473Z,100733.76
2017-09-15T20:14:14.834Z,100738.55
2017-09-15T20:16:43.211Z,100736.58
2017-09-15T20:19:12.620Z,100737.75
2017-09-15T20:21:42.000Z,100731.36
2017-09-15T20:24:10.359Z,100732.34
2017-09-15T20:26:39.007Z,100731.92
2017-09-15T20:29:07.401Z,100734.27
2017-09-15T20:31:36.058Z,100731.31
2017-09-15T20:34:05.462Z,100733.95
2017-09-15T20:36:34.266Z,100733.29
2017-09-15T20:39:02.619Z,100730.28
2017-09-15T20:41:31.800Z,100732.67
2017-09-15T20:44:02.601Z,100733.42
2017-09-15T20:46:31.583Z,100740.09
2017-09-15T20:49:01.084Z,100739.48
2017-09-15T20:51:29.458Z,100741.92
2017-09-15T20:53:57.831Z,100743.95
2017-09-15T20:56:26.548Z,100746.16
2017-09-15T20:58:54.936Z,100746.72
2017-09-15T21:01:24.136Z,100740.38
2017-09-15T21:03:52.876Z,100745.26
2017-09-15T21:06:21.268Z,100737.27
2017-09-15T21:08:50.038Z,100739.95
2017-09-15T21:11:18.701Z,100749.44
2017-09-15T21:13:47.471Z,100747.00
2017-09-15T21:16:16.260Z,100743.62
2017-09-15T21:18:45.512Z,100751.92
2017-09-15T21:21:14.674Z,100756.25
2017-09-15T21:23:43.024Z,100763.10
2017-09-15T21:26:11.938Z,100755.36
2017-09-15T21:28:40.295Z,100765.31
2017-09-15T21:31:08.681Z,100758.36
2017-09-15T21:33:37.344Z,100754.98
2017-09-15T21:36:05.723Z,100754.14
2017-09-15T21:38:34.889Z,100759.06
2017-09-15T21:41:05.152Z,100758.95
2017-09-15T21:43:33.603Z,100757.45
2017-09-15T21:46:01.985Z,100760.52
2017-09-15T21:48:31.469Z,100758.69
2017-09-15T21:51:00.609Z,100761.23
2017-09-15T21:53:29.710Z,100761.05
2017-09-15T21:55:58.674Z,100756.48
2017-09-15T21:58:27.077Z,100762.72
2017-09-15T22:00:55.450Z,100760.82
2017-09-15T22:03:24.245Z,100760.78
2017-09-15T22:05:52.595Z,100760.58
2017-09-15T22:08:20.974Z,100765.60
2017-09-15T22:10:50.482Z,100754.53
2017-09-15T22:13:19.142Z,100758.52
2017-09-15T22:15:48.290Z,100754.48
2017-09-15T22:18:17.074Z,100755.55
2017-09-15T22:20:45.447Z,100756.31
2017-09-15T22:23:13.889Z,100759.19
2017-09-15T22:25:43.651Z,100750.45
2017-09-15T22:28:12.746Z,100755.67
2017-09-15T22:30:41.239Z,100762.94
2017-09-15T22:33:10.767Z,100767.12
2017-09-15T22:35:39.900Z,100756.57
2017-09-15T22:38:08.393Z,100753.61
2017-09-15T22:40:38.088Z,100757.50
2017-09-15T22:43:07.349Z,100752.01
2017-09-15T22:45:36.891Z,100759.57
2017-09-15T22:48:06.992Z,100757.58
2017-09-15T22:50:35.399Z,100757.21
2017-09-15T22:53:05.418Z,100758.48
2017-09-15T22:55:34.229Z,100760.86
2017-09-15T22:58:02.965Z,100756.62
2017-09-15T23:00:31.463Z,100755.20
2017-09-15T23:03:01.462Z,100746.44
2017-09-15T23:05:29.869Z,100755.27
2017-09-15T23:07:58.440Z,100755.05
2017-09-15T23:10:28.392Z,100758.35
2017-09-15T23:12:56.859Z,100759.90
2017-09-15T23:15:26.486Z,100760.41
2017-09-15T23:17:55.990Z,100756.55
2017-09-15T23:20:24.460Z,100752.59
2017-09-15T23:22:52.856Z,100757.42
2017-09-15T23:25:22.318Z,100758.94
2017-09-15T23:27:50.708Z,100758.23
2017-09-15T23:30:19.783Z,100756.36
2017-09-15T23:32:49.262Z,100757.27
2017-09-15T23:35:17.641Z,100753.48
2017-09-15T23:37:46.075Z,100758.81
2017-09-15T23:40:14.914Z,100754.83
2017-09-15T23:42:43.323Z,100754.61
2017-09-15T23:45:12.623Z,100760.81
2017-09-15T23:47:41.842Z,100760.43
2017-09-15T23:50:10.281Z,100751.77
2017-09-15T23:52:38.782Z,100754.25
2017-09-15T23:55:08.839Z,100758.78
2017-09-15T23:57:37.321Z,100759.91
